Seal — PB4599 — position and weather

sailwx.info

Track history (hours):
 
Tides and Currents Weather Stations Pressure Air Temp Water Temp Dewpoint Dewpoint Depression Visibility Wind Speed Wind Dir Waves Ship Positions

Seal

Last reported at 2017-May-21 15:23 UTC. Time now 2017-May-23 08:46 UTC.
Position N 52°59' E 005°28'.

Length 11 m.

Type: Pleasure craft. MMSI: 244660324.

Date/timePositionNaut miles runAvg speedWind from/ knotsBaromVisibWave heightAir tempDewpointWater temp
2017-May-21 15:23N 52°59' E 005°28'1 2.7
2017-May-21 14:57N 52°58' E 005°30'3 2.4
2017-May-21 13:50N 52°56' E 005°31'1 4.3
2017-May-21 13:30N 52°55' E 005°29'2 4.2
2017-May-21 13:00N 52°53' E 005°27'2 3.9
2017-May-21 12:30N 52°53' E 005°24'1 2.5
2017-May-21 12:00N 52°53' E 005°22'2 3.2
2017-May-21 11:30N 52°52' E 005°20'1 2.6
2017-May-21 11:00N 52°51' E 005°18'1 2.9
2017-May-21 10:30N 52°50' E 005°16'2 3.5
2017-May-21 10:00N 52°49' E 005°14'2 3.2
2017-May-21 09:30N 52°48' E 005°12'2 3.4
2017-May-21 09:00N 52°47' E 005°09'2 3.1
2017-May-21 08:31N 52°46' E 005°07'0 0.3
2017-May-21 07:59N 52°46' E 005°07'  
Track history (hours):
 
Tides and Currents Weather Stations Pressure Air Temp Water Temp Dewpoint Dewpoint Depression Visibility Wind Speed Wind Dir Waves Ship Positions

Seal

Last reported at 2017-May-21 15:23 UTC. Time now 2017-May-23 08:46 UTC.
Position N 52°59' E 005°28'.

Length 11 m.

Type: Pleasure craft. MMSI: 244660324.

Date/timePositionNaut miles runAvg speedWind from/ knotsBaromVisibWave heightAir tempDewpointWater temp
2017-May-21 15:23N 52°59' E 005°28'1 2.7
2017-May-21 14:57N 52°58' E 005°30'3 2.4
2017-May-21 13:50N 52°56' E 005°31'1 4.3
2017-May-21 13:30N 52°55' E 005°29'2 4.2
2017-May-21 13:00N 52°53' E 005°27'2 3.9
2017-May-21 12:30N 52°53' E 005°24'1 2.5
2017-May-21 12:00N 52°53' E 005°22'2 3.2
2017-May-21 11:30N 52°52' E 005°20'1 2.6
2017-May-21 11:00N 52°51' E 005°18'1 2.9
2017-May-21 10:30N 52°50' E 005°16'2 3.5
2017-May-21 10:00N 52°49' E 005°14'2 3.2
2017-May-21 09:30N 52°48' E 005°12'2 3.4
2017-May-21 09:00N 52°47' E 005°09'2 3.1
2017-May-21 08:31N 52°46' E 005°07'0 0.3
2017-May-21 07:59N 52°46' E 005°07'  

Dump ship's entire track history